sensor_id;sensor_type;location;lat;lon;timestamp;P1;durP1;ratioP1;P2;durP2;ratioP2
62332;SDS011;48624;49.812;8.562;2023-07-31T00:02:01;12.35;;;11.75;;
62332;SDS011;48624;49.812;8.562;2023-07-31T00:04:26;10.60;;;9.98;;
62332;SDS011;48624;49.812;8.562;2023-07-31T00:06:51;12.98;;;12.38;;
62332;SDS011;48624;49.812;8.562;2023-07-31T00:09:17;12.00;;;11.40;;
62332;SDS011;48624;49.812;8.562;2023-07-31T00:11:42;18.70;;;17.70;;
62332;SDS011;48624;49.812;8.562;2023-07-31T00:14:09;42.72;;;41.03;;
62332;SDS011;48624;49.812;8.562;2023-07-31T00:16:34;12.50;;;11.80;;
62332;SDS011;48624;49.812;8.562;2023-07-31T00:18:59;17.38;;;16.58;;
62332;SDS011;48624;49.812;8.562;2023-07-31T00:21:24;14.40;;;13.70;;
62332;SDS011;48624;49.812;8.562;2023-07-31T00:23:50;11.98;;;11.32;;
62332;SDS011;48624;49.812;8.562;2023-07-31T00:26:15;7.82;;;7.28;;
62332;SDS011;48624;49.812;8.562;2023-07-31T00:28:40;10.60;;;9.95;;
62332;SDS011;48624;49.812;8.562;2023-07-31T00:31:06;8.65;;;7.93;;
62332;SDS011;48624;49.812;8.562;2023-07-31T00:33:31;10.13;;;9.18;;
62332;SDS011;48624;49.812;8.562;2023-07-31T00:35:57;6.57;;;6.00;;
62332;SDS011;48624;49.812;8.562;2023-07-31T00:38:22;8.23;;;7.55;;
62332;SDS011;48624;49.812;8.562;2023-07-31T00:40:47;7.80;;;6.95;;
62332;SDS011;48624;49.812;8.562;2023-07-31T00:43:13;7.20;;;6.57;;
62332;SDS011;48624;49.812;8.562;2023-07-31T00:45:38;7.38;;;6.85;;
62332;SDS011;48624;49.812;8.562;2023-07-31T00:48:04;9.35;;;8.68;;
62332;SDS011;48624;49.812;8.562;2023-07-31T00:50:31;8.27;;;7.85;;
62332;SDS011;48624;49.812;8.562;2023-07-31T00:52:57;9.45;;;8.95;;
62332;SDS011;48624;49.812;8.562;2023-07-31T00:55:23;13.88;;;9.32;;
62332;SDS011;48624;49.812;8.562;2023-07-31T00:57:49;10.18;;;9.50;;
62332;SDS011;48624;49.812;8.562;2023-07-31T01:00:15;11.48;;;10.77;;
62332;SDS011;48624;49.812;8.562;2023-07-31T01:02:40;8.70;;;8.07;;
62332;SDS011;48624;49.812;8.562;2023-07-31T01:05:06;7.72;;;7.32;;
62332;SDS011;48624;49.812;8.562;2023-07-31T01:07:42;8.57;;;7.68;;
62332;SDS011;48624;49.812;8.562;2023-07-31T01:10:26;7.70;;;7.32;;
62332;SDS011;48624;49.812;8.562;2023-07-31T01:12:58;8.20;;;7.70;;
62332;SDS011;48624;49.812;8.562;2023-07-31T01:15:24;7.97;;;7.53;;
62332;SDS011;48624;49.812;8.562;2023-07-31T01:17:49;7.20;;;6.60;;
62332;SDS011;48624;49.812;8.562;2023-07-31T01:20:17;9.27;;;8.77;;
62332;SDS011;48624;49.812;8.562;2023-07-31T01:28:20;13.57;;;12.98;;
62332;SDS011;48624;49.812;8.562;2023-07-31T01:30:52;10.10;;;9.60;;
62332;SDS011;48624;49.812;8.562;2023-07-31T01:33:20;8.65;;;8.25;;
62332;SDS011;48624;49.812;8.562;2023-07-31T01:35:46;9.35;;;8.57;;
62332;SDS011;48624;49.812;8.562;2023-07-31T01:38:13;12.20;;;11.50;;
62332;SDS011;48624;49.812;8.562;2023-07-31T01:40:41;10.65;;;10.02;;
62332;SDS011;48624;49.812;8.562;2023-07-31T01:43:07;11.70;;;11.00;;
62332;SDS011;48624;49.812;8.562;2023-07-31T01:45:32;13.35;;;12.70;;
62332;SDS011;48624;49.812;8.562;2023-07-31T01:47:58;12.65;;;12.07;;
62332;SDS011;48624;49.812;8.562;2023-07-31T01:50:24;12.68;;;11.93;;
62332;SDS011;48624;49.812;8.562;2023-07-31T01:52:49;18.15;;;17.17;;
62332;SDS011;48624;49.812;8.562;2023-07-31T01:55:15;16.70;;;15.45;;
62332;SDS011;48624;49.812;8.562;2023-07-31T01:57:40;15.55;;;14.75;;
62332;SDS011;48624;49.812;8.562;2023-07-31T02:00:05;23.38;;;22.15;;
62332;SDS011;48624;49.812;8.562;2023-07-31T02:02:31;26.20;;;25.17;;
62332;SDS011;48624;49.812;8.562;2023-07-31T02:04:57;22.92;;;21.92;;
62332;SDS011;48624;49.812;8.562;2023-07-31T02:07:22;23.80;;;22.60;;
62332;SDS011;48624;49.812;8.562;2023-07-31T02:09:48;21.50;;;20.40;;
62332;SDS011;48624;49.812;8.562;2023-07-31T02:12:13;20.65;;;19.73;;
62332;SDS011;48624;49.812;8.562;2023-07-31T02:14:39;19.30;;;18.17;;
62332;SDS011;48624;49.812;8.562;2023-07-31T02:17:05;20.55;;;19.38;;
62332;SDS011;48624;49.812;8.562;2023-07-31T02:19:30;24.35;;;23.30;;
62332;SDS011;48624;49.812;8.562;2023-07-31T02:21:56;19.88;;;18.70;;
62332;SDS011;48624;49.812;8.562;2023-07-31T02:24:21;20.08;;;19.15;;
62332;SDS011;48624;49.812;8.562;2023-07-31T02:26:46;26.25;;;24.85;;
62332;SDS011;48624;49.812;8.562;2023-07-31T02:29:11;25.17;;;24.17;;
62332;SDS011;48624;49.812;8.562;2023-07-31T02:31:37;26.52;;;25.30;;
62332;SDS011;48624;49.812;8.562;2023-07-31T02:34:02;27.35;;;25.95;;
62332;SDS011;48624;49.812;8.562;2023-07-31T02:36:27;27.17;;;25.73;;
62332;SDS011;48624;49.812;8.562;2023-07-31T02:38:53;19.80;;;18.92;;
62332;SDS011;48624;49.812;8.562;2023-07-31T02:41:18;27.67;;;26.15;;
62332;SDS011;48624;49.812;8.562;2023-07-31T02:43:43;32.05;;;30.35;;
62332;SDS011;48624;49.812;8.562;2023-07-31T02:46:09;28.00;;;26.60;;
62332;SDS011;48624;49.812;8.562;2023-07-31T02:48:34;22.55;;;21.55;;
62332;SDS011;48624;49.812;8.562;2023-07-31T02:50:59;22.90;;;21.40;;
62332;SDS011;48624;49.812;8.562;2023-07-31T02:53:25;26.00;;;24.60;;
62332;SDS011;48624;49.812;8.562;2023-07-31T02:55:50;26.55;;;25.27;;
62332;SDS011;48624;49.812;8.562;2023-07-31T02:58:15;24.63;;;23.33;;
62332;SDS011;48624;49.812;8.562;2023-07-31T03:00:44;27.33;;;25.73;;
62332;SDS011;48624;49.812;8.562;2023-07-31T03:03:09;30.27;;;28.92;;
62332;SDS011;48624;49.812;8.562;2023-07-31T03:05:35;35.72;;;34.28;;
62332;SDS011;48624;49.812;8.562;2023-07-31T03:08:00;40.50;;;38.72;;
62332;SDS011;48624;49.812;8.562;2023-07-31T03:10:26;54.45;;;52.38;;
62332;SDS011;48624;49.812;8.562;2023-07-31T03:12:51;56.55;;;54.25;;
62332;SDS011;48624;49.812;8.562;2023-07-31T03:15:17;60.42;;;58.15;;
62332;SDS011;48624;49.812;8.562;2023-07-31T03:17:42;59.00;;;56.50;;
62332;SDS011;48624;49.812;8.562;2023-07-31T03:20:08;71.57;;;69.07;;
62332;SDS011;48624;49.812;8.562;2023-07-31T03:22:33;69.05;;;66.38;;
62332;SDS011;48624;49.812;8.562;2023-07-31T03:25:00;110.20;;;106.25;;
62332;SDS011;48624;49.812;8.562;2023-07-31T03:27:26;163.30;;;157.57;;
62332;SDS011;48624;49.812;8.562;2023-07-31T03:29:51;207.93;;;200.77;;
62332;SDS011;48624;49.812;8.562;2023-07-31T03:32:17;325.10;;;313.70;;
62332;SDS011;48624;49.812;8.562;2023-07-31T03:34:42;384.80;;;370.60;;
62332;SDS011;48624;49.812;8.562;2023-07-31T03:37:07;411.48;;;396.63;;
62332;SDS011;48624;49.812;8.562;2023-07-31T03:39:34;365.85;;;352.67;;
62332;SDS011;48624;49.812;8.562;2023-07-31T03:42:00;495.52;;;475.42;;
62332;SDS011;48624;49.812;8.562;2023-07-31T03:44:25;403.70;;;389.08;;
62332;SDS011;48624;49.812;8.562;2023-07-31T03:46:50;386.90;;;373.17;;
62332;SDS011;48624;49.812;8.562;2023-07-31T03:49:16;406.98;;;392.02;;
62332;SDS011;48624;49.812;8.562;2023-07-31T03:51:41;418.52;;;403.65;;
62332;SDS011;48624;49.812;8.562;2023-07-31T03:54:06;338.98;;;327.13;;
62332;SDS011;48624;49.812;8.562;2023-07-31T03:56:32;292.20;;;282.10;;
62332;SDS011;48624;49.812;8.562;2023-07-31T03:58:58;282.83;;;272.77;;
62332;SDS011;48624;49.812;8.562;2023-07-31T04:01:23;227.63;;;220.00;;
62332;SDS011;48624;49.812;8.562;2023-07-31T04:03:49;251.93;;;243.27;;
62332;SDS011;48624;49.812;8.562;2023-07-31T04:06:14;226.20;;;218.50;;
62332;SDS011;48624;49.812;8.562;2023-07-31T04:08:43;164.77;;;159.18;;
62332;SDS011;48624;49.812;8.562;2023-07-31T04:11:08;150.30;;;144.93;;
62332;SDS011;48624;49.812;8.562;2023-07-31T04:13:34;148.63;;;143.68;;
62332;SDS011;48624;49.812;8.562;2023-07-31T04:15:59;154.48;;;148.93;;
62332;SDS011;48624;49.812;8.562;2023-07-31T04:18:25;161.30;;;155.73;;
62332;SDS011;48624;49.812;8.562;2023-07-31T04:20:51;129.90;;;125.30;;
62332;SDS011;48624;49.812;8.562;2023-07-31T04:23:16;130.40;;;125.65;;
62332;SDS011;48624;49.812;8.562;2023-07-31T04:25:41;129.60;;;125.10;;
62332;SDS011;48624;49.812;8.562;2023-07-31T04:28:07;128.50;;;124.18;;
62332;SDS011;48624;49.812;8.562;2023-07-31T04:30:32;115.65;;;111.43;;
62332;SDS011;48624;49.812;8.562;2023-07-31T04:32:57;118.47;;;114.32;;
62332;SDS011;48624;49.812;8.562;2023-07-31T04:35:23;101.82;;;98.07;;
62332;SDS011;48624;49.812;8.562;2023-07-31T04:37:48;99.43;;;95.70;;
62332;SDS011;48624;49.812;8.562;2023-07-31T04:40:14;88.38;;;85.28;;
62332;SDS011;48624;49.812;8.562;2023-07-31T04:42:40;72.70;;;69.80;;
62332;SDS011;48624;49.812;8.562;2023-07-31T04:45:06;79.03;;;76.28;;
62332;SDS011;48624;49.812;8.562;2023-07-31T04:47:31;75.85;;;73.10;;
62332;SDS011;48624;49.812;8.562;2023-07-31T04:49:56;64.50;;;62.08;;
62332;SDS011;48624;49.812;8.562;2023-07-31T04:52:21;76.72;;;73.90;;
62332;SDS011;48624;49.812;8.562;2023-07-31T04:54:47;60.88;;;58.65;;
62332;SDS011;48624;49.812;8.562;2023-07-31T04:57:12;46.25;;;43.97;;
62332;SDS011;48624;49.812;8.562;2023-07-31T04:59:37;68.85;;;66.20;;
62332;SDS011;48624;49.812;8.562;2023-07-31T05:02:03;51.97;;;49.85;;
62332;SDS011;48624;49.812;8.562;2023-07-31T05:04:28;46.33;;;44.22;;
62332;SDS011;48624;49.812;8.562;2023-07-31T05:06:54;70.05;;;67.55;;
62332;SDS011;48624;49.812;8.562;2023-07-31T05:09:19;61.72;;;59.38;;
62332;SDS011;48624;49.812;8.562;2023-07-31T05:11:45;47.40;;;45.45;;
62332;SDS011;48624;49.812;8.562;2023-07-31T05:14:10;52.40;;;50.05;;
62332;SDS011;48624;49.812;8.562;2023-07-31T05:16:35;44.20;;;42.53;;
62332;SDS011;48624;49.812;8.562;2023-07-31T05:19:01;49.13;;;46.80;;
62332;SDS011;48624;49.812;8.562;2023-07-31T05:21:26;65.13;;;62.80;;
62332;SDS011;48624;49.812;8.562;2023-07-31T05:23:51;60.53;;;58.22;;
62332;SDS011;48624;49.812;8.562;2023-07-31T05:26:17;45.97;;;43.97;;
62332;SDS011;48624;49.812;8.562;2023-07-31T05:28:42;43.88;;;42.00;;
62332;SDS011;48624;49.812;8.562;2023-07-31T05:31:08;56.58;;;54.35;;
62332;SDS011;48624;49.812;8.562;2023-07-31T05:33:33;53.00;;;50.88;;
62332;SDS011;48624;49.812;8.562;2023-07-31T05:35:59;46.65;;;44.80;;
62332;SDS011;48624;49.812;8.562;2023-07-31T05:38:25;28.55;;;27.20;;
62332;SDS011;48624;49.812;8.562;2023-07-31T05:40:51;35.42;;;33.33;;
62332;SDS011;48624;49.812;8.562;2023-07-31T05:43:16;34.22;;;32.53;;
62332;SDS011;48624;49.812;8.562;2023-07-31T05:45:43;35.00;;;33.50;;
62332;SDS011;48624;49.812;8.562;2023-07-31T05:48:08;20.25;;;19.35;;
62332;SDS011;48624;49.812;8.562;2023-07-31T05:50:33;41.38;;;39.38;;
62332;SDS011;48624;49.812;8.562;2023-07-31T05:52:59;21.75;;;20.85;;
62332;SDS011;48624;49.812;8.562;2023-07-31T05:55:24;19.27;;;18.33;;
62332;SDS011;48624;49.812;8.562;2023-07-31T05:57:53;25.23;;;24.20;;
62332;SDS011;48624;49.812;8.562;2023-07-31T06:00:19;23.80;;;22.52;;
62332;SDS011;48624;49.812;8.562;2023-07-31T06:02:45;16.60;;;15.65;;
62332;SDS011;48624;49.812;8.562;2023-07-31T06:05:11;20.92;;;19.90;;
62332;SDS011;48624;49.812;8.562;2023-07-31T06:07:36;16.65;;;15.95;;
62332;SDS011;48624;49.812;8.562;2023-07-31T06:10:01;20.65;;;19.38;;
62332;SDS011;48624;49.812;8.562;2023-07-31T06:12:30;16.98;;;15.82;;
62332;SDS011;48624;49.812;8.562;2023-07-31T06:14:56;16.67;;;15.57;;
62332;SDS011;48624;49.812;8.562;2023-07-31T06:17:21;13.48;;;12.77;;
62332;SDS011;48624;49.812;8.562;2023-07-31T06:19:47;14.40;;;13.60;;
62332;SDS011;48624;49.812;8.562;2023-07-31T06:22:12;20.40;;;19.40;;
62332;SDS011;48624;49.812;8.562;2023-07-31T06:24:37;14.77;;;13.88;;
62332;SDS011;48624;49.812;8.562;2023-07-31T06:27:03;14.13;;;13.02;;
62332;SDS011;48624;49.812;8.562;2023-07-31T06:29:29;14.43;;;13.52;;
62332;SDS011;48624;49.812;8.562;2023-07-31T06:31:54;12.05;;;11.35;;
62332;SDS011;48624;49.812;8.562;2023-07-31T06:34:20;9.25;;;8.30;;
62332;SDS011;48624;49.812;8.562;2023-07-31T06:36:45;8.57;;;7.47;;
62332;SDS011;48624;49.812;8.562;2023-07-31T06:39:10;8.57;;;7.95;;
62332;SDS011;48624;49.812;8.562;2023-07-31T06:41:36;9.25;;;8.38;;
62332;SDS011;48624;49.812;8.562;2023-07-31T06:44:01;8.38;;;7.65;;
62332;SDS011;48624;49.812;8.562;2023-07-31T06:46:26;8.30;;;7.70;;
62332;SDS011;48624;49.812;8.562;2023-07-31T06:48:53;12.30;;;11.60;;
62332;SDS011;48624;49.812;8.562;2023-07-31T06:51:18;9.15;;;7.80;;
62332;SDS011;48624;49.812;8.562;2023-07-31T06:53:43;8.52;;;8.07;;
62332;SDS011;48624;49.812;8.562;2023-07-31T06:56:10;14.48;;;13.57;;
62332;SDS011;48624;49.812;8.562;2023-07-31T06:58:35;9.98;;;8.15;;
62332;SDS011;48624;49.812;8.562;2023-07-31T07:01:00;22.50;;;20.65;;
62332;SDS011;48624;49.812;8.562;2023-07-31T07:03:26;22.83;;;21.17;;
62332;SDS011;48624;49.812;8.562;2023-07-31T07:05:52;9.77;;;9.00;;
62332;SDS011;48624;49.812;8.562;2023-07-31T07:08:17;4.95;;;4.32;;
62332;SDS011;48624;49.812;8.562;2023-07-31T07:10:43;5.07;;;3.80;;
62332;SDS011;48624;49.812;8.562;2023-07-31T07:13:08;5.32;;;4.47;;
62332;SDS011;48624;49.812;8.562;2023-07-31T07:15:33;7.25;;;2.70;;
62332;SDS011;48624;49.812;8.562;2023-07-31T07:17:58;6.18;;;5.07;;
62332;SDS011;48624;49.812;8.562;2023-07-31T07:20:24;5.80;;;3.40;;
62332;SDS011;48624;49.812;8.562;2023-07-31T07:22:49;23.95;;;22.38;;
62332;SDS011;48624;49.812;8.562;2023-07-31T07:25:14;12.05;;;4.47;;
62332;SDS011;48624;49.812;8.562;2023-07-31T07:27:40;4.63;;;3.45;;
62332;SDS011;48624;49.812;8.562;2023-07-31T07:30:05;4.97;;;3.30;;
62332;SDS011;48624;49.812;8.562;2023-07-31T07:32:31;5.50;;;2.45;;
62332;SDS011;48624;49.812;8.562;2023-07-31T07:34:56;9.20;;;6.63;;
62332;SDS011;48624;49.812;8.562;2023-07-31T07:37:22;3.25;;;2.42;;
62332;SDS011;48624;49.812;8.562;2023-07-31T07:39:47;5.05;;;3.58;;
62332;SDS011;48624;49.812;8.562;2023-07-31T07:42:13;5.50;;;3.25;;
62332;SDS011;48624;49.812;8.562;2023-07-31T07:44:38;4.65;;;2.55;;
62332;SDS011;48624;49.812;8.562;2023-07-31T07:47:03;4.68;;;3.17;;
62332;SDS011;48624;49.812;8.562;2023-07-31T07:49:31;7.60;;;6.88;;
62332;SDS011;48624;49.812;8.562;2023-07-31T07:51:56;3.08;;;2.63;;
62332;SDS011;48624;49.812;8.562;2023-07-31T07:54:21;6.03;;;4.68;;
62332;SDS011;48624;49.812;8.562;2023-07-31T07:56:47;4.53;;;3.03;;
62332;SDS011;48624;49.812;8.562;2023-07-31T07:59:12;4.78;;;2.95;;
62332;SDS011;48624;49.812;8.562;2023-07-31T08:01:37;4.78;;;2.22;;
62332;SDS011;48624;49.812;8.562;2023-07-31T08:04:03;3.75;;;1.92;;
62332;SDS011;48624;49.812;8.562;2023-07-31T08:06:28;3.60;;;2.00;;
62332;SDS011;48624;49.812;8.562;2023-07-31T08:08:54;4.13;;;2.30;;
62332;SDS011;48624;49.812;8.562;2023-07-31T08:11:20;6.10;;;1.80;;
62332;SDS011;48624;49.812;8.562;2023-07-31T08:13:46;5.47;;;2.78;;
62332;SDS011;48624;49.812;8.562;2023-07-31T08:16:12;4.68;;;1.63;;
62332;SDS011;48624;49.812;8.562;2023-07-31T08:18:38;4.72;;;2.78;;
62332;SDS011;48624;49.812;8.562;2023-07-31T08:21:05;6.20;;;2.03;;
62332;SDS011;48624;49.812;8.562;2023-07-31T08:23:31;4.25;;;2.10;;
62332;SDS011;48624;49.812;8.562;2023-07-31T08:25:56;10.48;;;9.52;;
62332;SDS011;48624;49.812;8.562;2023-07-31T08:28:21;2.85;;;1.48;;
62332;SDS011;48624;49.812;8.562;2023-07-31T08:30:46;3.55;;;3.03;;
62332;SDS011;48624;49.812;8.562;2023-07-31T08:33:12;4.18;;;1.92;;
62332;SDS011;48624;49.812;8.562;2023-07-31T08:35:37;2.53;;;1.83;;
62332;SDS011;48624;49.812;8.562;2023-07-31T08:38:02;4.20;;;1.73;;
62332;SDS011;48624;49.812;8.562;2023-07-31T08:40:28;4.95;;;2.53;;
62332;SDS011;48624;49.812;8.562;2023-07-31T08:42:54;5.28;;;2.65;;
62332;SDS011;48624;49.812;8.562;2023-07-31T08:45:27;6.65;;;2.60;;
62332;SDS011;48624;49.812;8.562;2023-07-31T08:47:52;6.45;;;1.92;;
62332;SDS011;48624;49.812;8.562;2023-07-31T08:50:18;3.72;;;2.13;;
62332;SDS011;48624;49.812;8.562;2023-07-31T08:52:48;3.65;;;1.95;;
62332;SDS011;48624;49.812;8.562;2023-07-31T08:55:15;4.00;;;1.77;;
62332;SDS011;48624;49.812;8.562;2023-07-31T08:57:40;4.68;;;1.30;;
62332;SDS011;48624;49.812;8.562;2023-07-31T09:00:07;3.83;;;1.42;;
62332;SDS011;48624;49.812;8.562;2023-07-31T09:02:38;4.75;;;1.95;;
62332;SDS011;48624;49.812;8.562;2023-07-31T09:05:05;3.03;;;1.45;;
62332;SDS011;48624;49.812;8.562;2023-07-31T09:07:33;2.47;;;1.45;;
62332;SDS011;48624;49.812;8.562;2023-07-31T09:09:59;3.80;;;2.85;;
62332;SDS011;48624;49.812;8.562;2023-07-31T09:12:25;4.25;;;2.13;;
62332;SDS011;48624;49.812;8.562;2023-07-31T09:14:50;3.08;;;1.60;;
62332;SDS011;48624;49.812;8.562;2023-07-31T09:17:16;7.50;;;2.28;;
62332;SDS011;48624;49.812;8.562;2023-07-31T09:19:53;3.10;;;1.52;;
62332;SDS011;48624;49.812;8.562;2023-07-31T09:22:25;2.45;;;1.48;;
62332;SDS011;48624;49.812;8.562;2023-07-31T09:24:57;4.97;;;1.90;;
62332;SDS011;48624;49.812;8.562;2023-07-31T09:27:57;4.50;;;1.75;;
62332;SDS011;48624;49.812;8.562;2023-07-31T09:30:24;2.78;;;1.40;;
62332;SDS011;48624;49.812;8.562;2023-07-31T09:32:50;6.40;;;2.47;;
62332;SDS011;48624;49.812;8.562;2023-07-31T09:35:27;4.32;;;1.73;;
62332;SDS011;48624;49.812;8.562;2023-07-31T09:37:58;4.72;;;2.30;;
62332;SDS011;48624;49.812;8.562;2023-07-31T09:40:28;4.00;;;2.30;;
62332;SDS011;48624;49.812;8.562;2023-07-31T09:42:59;5.00;;;2.15;;
62332;SDS011;48624;49.812;8.562;2023-07-31T09:45:28;5.72;;;2.25;;
62332;SDS011;48624;49.812;8.562;2023-07-31T09:47:55;4.85;;;1.73;;
62332;SDS011;48624;49.812;8.562;2023-07-31T09:50:22;6.40;;;2.03;;
62332;SDS011;48624;49.812;8.562;2023-07-31T09:52:49;8.40;;;7.57;;
62332;SDS011;48624;49.812;8.562;2023-07-31T09:55:15;6.75;;;1.73;;
62332;SDS011;48624;49.812;8.562;2023-07-31T09:57:41;3.72;;;2.17;;
62332;SDS011;48624;49.812;8.562;2023-07-31T10:00:14;4.75;;;2.38;;
62332;SDS011;48624;49.812;8.562;2023-07-31T10:02:41;5.63;;;4.68;;
62332;SDS011;48624;49.812;8.562;2023-07-31T10:05:09;4.32;;;1.83;;
62332;SDS011;48624;49.812;8.562;2023-07-31T10:07:38;6.85;;;2.25;;
62332;SDS011;48624;49.812;8.562;2023-07-31T10:10:07;4.22;;;1.73;;
62332;SDS011;48624;49.812;8.562;2023-07-31T10:12:36;4.93;;;1.50;;
62332;SDS011;48624;49.812;8.562;2023-07-31T10:15:03;3.55;;;1.75;;
62332;SDS011;48624;49.812;8.562;2023-07-31T10:17:29;7.00;;;2.28;;
62332;SDS011;48624;49.812;8.562;2023-07-31T10:19:56;5.65;;;1.90;;
62332;SDS011;48624;49.812;8.562;2023-07-31T10:22:26;5.55;;;1.70;;
62332;SDS011;48624;49.812;8.562;2023-07-31T10:24:52;6.85;;;2.08;;
62332;SDS011;48624;49.812;8.562;2023-07-31T10:27:20;4.03;;;1.88;;
62332;SDS011;48624;49.812;8.562;2023-07-31T10:29:45;3.70;;;2.13;;
62332;SDS011;48624;49.812;8.562;2023-07-31T10:32:13;8.85;;;2.25;;
62332;SDS011;48624;49.812;8.562;2023-07-31T10:34:40;7.05;;;2.58;;
62332;SDS011;48624;49.812;8.562;2023-07-31T10:39:59;4.78;;;2.15;;
62332;SDS011;48624;49.812;8.562;2023-07-31T10:42:36;4.95;;;1.77;;
62332;SDS011;48624;49.812;8.562;2023-07-31T10:45:08;6.90;;;2.10;;
62332;SDS011;48624;49.812;8.562;2023-07-31T10:47:46;5.55;;;2.58;;
62332;SDS011;48624;49.812;8.562;2023-07-31T10:52:50;5.07;;;2.90;;
62332;SDS011;48624;49.812;8.562;2023-07-31T10:58:04;217.30;;;158.20;;
62332;SDS011;48624;49.812;8.562;2023-07-31T11:00:31;3.60;;;2.28;;
62332;SDS011;48624;49.812;8.562;2023-07-31T11:03:07;6.47;;;2.00;;
62332;SDS011;48624;49.812;8.562;2023-07-31T11:05:41;4.07;;;2.30;;
62332;SDS011;48624;49.812;8.562;2023-07-31T11:08:22;5.15;;;2.00;;
62332;SDS011;48624;49.812;8.562;2023-07-31T11:11:09;6.50;;;2.47;;
62332;SDS011;48624;49.812;8.562;2023-07-31T11:16:22;5.72;;;1.80;;
62332;SDS011;48624;49.812;8.562;2023-07-31T11:18:48;5.63;;;2.22;;
62332;SDS011;48624;49.812;8.562;2023-07-31T11:21:17;3.67;;;2.40;;
62332;SDS011;48624;49.812;8.562;2023-07-31T11:23:47;4.35;;;3.25;;
62332;SDS011;48624;49.812;8.562;2023-07-31T11:26:14;6.60;;;4.95;;
62332;SDS011;48624;49.812;8.562;2023-07-31T11:28:41;6.55;;;3.63;;
62332;SDS011;48624;49.812;8.562;2023-07-31T11:31:09;5.03;;;4.57;;
62332;SDS011;48624;49.812;8.562;2023-07-31T11:33:35;4.63;;;3.05;;
62332;SDS011;48624;49.812;8.562;2023-07-31T11:36:01;7.18;;;2.50;;
62332;SDS011;48624;49.812;8.562;2023-07-31T11:38:27;4.80;;;1.55;;
62332;SDS011;48624;49.812;8.562;2023-07-31T11:40:55;3.35;;;2.08;;
62332;SDS011;48624;49.812;8.562;2023-07-31T11:43:22;5.20;;;1.70;;
62332;SDS011;48624;49.812;8.562;2023-07-31T11:45:49;3.13;;;1.83;;
62332;SDS011;48624;49.812;8.562;2023-07-31T11:48:19;3.65;;;1.85;;
62332;SDS011;48624;49.812;8.562;2023-07-31T11:50:55;4.03;;;2.47;;
62332;SDS011;48624;49.812;8.562;2023-07-31T11:56:03;5.68;;;2.28;;
62332;SDS011;48624;49.812;8.562;2023-07-31T11:58:30;5.18;;;2.40;;
62332;SDS011;48624;49.812;8.562;2023-07-31T12:00:58;4.30;;;2.15;;
62332;SDS011;48624;49.812;8.562;2023-07-31T12:03:25;6.47;;;1.83;;
62332;SDS011;48624;49.812;8.562;2023-07-31T12:05:52;4.40;;;1.77;;
62332;SDS011;48624;49.812;8.562;2023-07-31T12:08:18;5.97;;;1.80;;
62332;SDS011;48624;49.812;8.562;2023-07-31T12:10:46;4.03;;;1.90;;
62332;SDS011;48624;49.812;8.562;2023-07-31T12:13:20;4.82;;;2.15;;
62332;SDS011;48624;49.812;8.562;2023-07-31T12:15:53;4.68;;;1.95;;
62332;SDS011;48624;49.812;8.562;2023-07-31T12:18:20;5.53;;;2.22;;
62332;SDS011;48624;49.812;8.562;2023-07-31T12:20:47;3.63;;;1.60;;
62332;SDS011;48624;49.812;8.562;2023-07-31T12:23:20;4.72;;;2.15;;
62332;SDS011;48624;49.812;8.562;2023-07-31T12:26:06;4.32;;;2.10;;
62332;SDS011;48624;49.812;8.562;2023-07-31T12:28:36;4.18;;;2.25;;
62332;SDS011;48624;49.812;8.562;2023-07-31T12:31:14;5.40;;;3.35;;
62332;SDS011;48624;49.812;8.562;2023-07-31T12:33:44;13.75;;;11.27;;
62332;SDS011;48624;49.812;8.562;2023-07-31T12:36:13;3.63;;;1.77;;
62332;SDS011;48624;49.812;8.562;2023-07-31T12:38:40;2.40;;;1.45;;
62332;SDS011;48624;49.812;8.562;2023-07-31T12:41:07;7.32;;;2.15;;
62332;SDS011;48624;49.812;8.562;2023-07-31T12:43:33;3.63;;;2.22;;
62332;SDS011;48624;49.812;8.562;2023-07-31T12:45:59;3.70;;;1.77;;
62332;SDS011;48624;49.812;8.562;2023-07-31T12:48:31;5.03;;;1.88;;
62332;SDS011;48624;49.812;8.562;2023-07-31T12:50:57;5.20;;;2.38;;
62332;SDS011;48624;49.812;8.562;2023-07-31T12:53:22;3.30;;;1.73;;
62332;SDS011;48624;49.812;8.562;2023-07-31T12:55:48;3.53;;;1.80;;
62332;SDS011;48624;49.812;8.562;2023-07-31T12:58:13;5.93;;;2.33;;
62332;SDS011;48624;49.812;8.562;2023-07-31T13:00:38;6.18;;;3.63;;
62332;SDS011;48624;49.812;8.562;2023-07-31T13:03:04;6.28;;;2.10;;
62332;SDS011;48624;49.812;8.562;2023-07-31T13:05:29;3.42;;;1.85;;
62332;SDS011;48624;49.812;8.562;2023-07-31T13:07:55;3.30;;;1.55;;
62332;SDS011;48624;49.812;8.562;2023-07-31T13:10:22;3.13;;;2.03;;
62332;SDS011;48624;49.812;8.562;2023-07-31T13:12:48;6.22;;;1.85;;
62332;SDS011;48624;49.812;8.562;2023-07-31T13:15:14;19.20;;;17.90;;
62332;SDS011;48624;49.812;8.562;2023-07-31T13:17:39;4.47;;;2.13;;
62332;SDS011;48624;49.812;8.562;2023-07-31T13:20:05;2.65;;;1.52;;
62332;SDS011;48624;49.812;8.562;2023-07-31T13:22:30;90.10;;;82.07;;
62332;SDS011;48624;49.812;8.562;2023-07-31T13:24:56;7.75;;;2.30;;
62332;SDS011;48624;49.812;8.562;2023-07-31T13:27:21;4.50;;;1.55;;
62332;SDS011;48624;49.812;8.562;2023-07-31T13:29:47;5.50;;;2.22;;
62332;SDS011;48624;49.812;8.562;2023-07-31T13:32:13;4.00;;;1.83;;
62332;SDS011;48624;49.812;8.562;2023-07-31T13:34:39;6.55;;;5.90;;
62332;SDS011;48624;49.812;8.562;2023-07-31T13:37:05;5.07;;;1.80;;
62332;SDS011;48624;49.812;8.562;2023-07-31T13:39:33;2.65;;;1.58;;
62332;SDS011;48624;49.812;8.562;2023-07-31T13:41:59;7.43;;;2.58;;
62332;SDS011;48624;49.812;8.562;2023-07-31T13:44:25;5.07;;;1.90;;
62332;SDS011;48624;49.812;8.562;2023-07-31T13:46:51;4.28;;;2.03;;
62332;SDS011;48624;49.812;8.562;2023-07-31T13:49:16;5.57;;;2.10;;
62332;SDS011;48624;49.812;8.562;2023-07-31T13:51:41;4.35;;;2.58;;
62332;SDS011;48624;49.812;8.562;2023-07-31T13:54:08;5.22;;;3.53;;
62332;SDS011;48624;49.812;8.562;2023-07-31T13:56:33;6.38;;;2.63;;
62332;SDS011;48624;49.812;8.562;2023-07-31T13:58:58;4.50;;;2.05;;
62332;SDS011;48624;49.812;8.562;2023-07-31T14:01:25;68.75;;;63.30;;
62332;SDS011;48624;49.812;8.562;2023-07-31T14:03:51;5.20;;;2.15;;
62332;SDS011;48624;49.812;8.562;2023-07-31T14:06:16;2.67;;;1.90;;
62332;SDS011;48624;49.812;8.562;2023-07-31T14:08:42;3.50;;;1.98;;
62332;SDS011;48624;49.812;8.562;2023-07-31T14:11:07;4.25;;;2.80;;
62332;SDS011;48624;49.812;8.562;2023-07-31T14:13:32;5.30;;;2.47;;
62332;SDS011;48624;49.812;8.562;2023-07-31T14:15:57;4.78;;;2.17;;
62332;SDS011;48624;49.812;8.562;2023-07-31T14:18:23;7.05;;;6.53;;
62332;SDS011;48624;49.812;8.562;2023-07-31T14:20:48;4.93;;;2.30;;
62332;SDS011;48624;49.812;8.562;2023-07-31T14:23:14;7.97;;;2.95;;
62332;SDS011;48624;49.812;8.562;2023-07-31T14:25:40;5.97;;;2.30;;
62332;SDS011;48624;49.812;8.562;2023-07-31T14:28:06;5.47;;;2.17;;
62332;SDS011;48624;49.812;8.562;2023-07-31T14:30:31;3.65;;;1.92;;
62332;SDS011;48624;49.812;8.562;2023-07-31T14:32:58;5.22;;;2.92;;
62332;SDS011;48624;49.812;8.562;2023-07-31T14:35:25;4.68;;;2.78;;
62332;SDS011;48624;49.812;8.562;2023-07-31T14:37:50;5.32;;;2.47;;
62332;SDS011;48624;49.812;8.562;2023-07-31T14:40:16;5.13;;;4.65;;
62332;SDS011;48624;49.812;8.562;2023-07-31T14:42:41;3.25;;;2.17;;
62332;SDS011;48624;49.812;8.562;2023-07-31T14:45:07;5.63;;;2.28;;
62332;SDS011;48624;49.812;8.562;2023-07-31T14:47:32;3.88;;;2.47;;
62332;SDS011;48624;49.812;8.562;2023-07-31T14:49:59;6.22;;;2.75;;
62332;SDS011;48624;49.812;8.562;2023-07-31T14:52:25;4.63;;;3.58;;